sensor_id;sensor_type;location;lat;lon;timestamp;pressure;altitude;pressure_sealevel;temperature;humidity
56142;BME280;42018;48.588;10.836;2024-03-06T00:01:45;96663.50;;;8.96;75.78
56142;BME280;42018;48.588;10.836;2024-03-06T00:04:30;96669.88;;;9.00;75.05
56142;BME280;42018;48.588;10.836;2024-03-06T00:07:16;96672.75;;;8.93;75.28
56142;BME280;42018;48.588;10.836;2024-03-06T00:10:01;96671.44;;;8.96;75.88
56142;BME280;42018;48.588;10.836;2024-03-06T00:12:47;96663.50;;;8.96;75.21
56142;BME280;42018;48.588;10.836;2024-03-06T00:15:32;96671.16;;;8.92;75.09
56142;BME280;42018;48.588;10.836;2024-03-06T00:18:18;96675.63;;;8.86;75.17
56142;BME280;42018;48.588;10.836;2024-03-06T00:21:04;96671.34;;;8.80;75.37
56142;BME280;42018;48.588;10.836;2024-03-06T00:23:49;96669.41;;;8.66;75.80
56142;BME280;42018;48.588;10.836;2024-03-06T00:26:35;96664.63;;;8.57;75.96
56142;BME280;42018;48.588;10.836;2024-03-06T00:29:21;96668.59;;;8.60;76.35
56142;BME280;42018;48.588;10.836;2024-03-06T00:32:06;96669.63;;;8.59;76.50
56142;BME280;42018;48.588;10.836;2024-03-06T00:34:52;96678.06;;;8.56;76.40
56142;BME280;42018;48.588;10.836;2024-03-06T00:37:38;96677.78;;;8.52;76.86
56142;BME280;42018;48.588;10.836;2024-03-06T00:40:23;96677.25;;;8.50;76.94
56142;BME280;42018;48.588;10.836;2024-03-06T00:43:09;96674.56;;;8.45;77.20
56142;BME280;42018;48.588;10.836;2024-03-06T00:45:54;96675.00;;;8.37;77.66
56142;BME280;42018;48.588;10.836;2024-03-06T00:48:40;96678.28;;;8.49;77.54
56142;BME280;42018;48.588;10.836;2024-03-06T00:51:25;96673.28;;;8.53;77.59
56142;BME280;42018;48.588;10.836;2024-03-06T00:54:11;96673.22;;;8.43;77.51
56142;BME280;42018;48.588;10.836;2024-03-06T00:56:56;96672.56;;;8.30;78.00
56142;BME280;42018;48.588;10.836;2024-03-06T00:59:42;96671.50;;;8.31;78.16
56142;BME280;42018;48.588;10.836;2024-03-06T01:02:28;96670.44;;;8.32;77.99
56142;BME280;42018;48.588;10.836;2024-03-06T01:05:13;96674.66;;;8.28;77.89
56142;BME280;42018;48.588;10.836;2024-03-06T01:07:59;96670.59;;;8.15;78.89
56142;BME280;42018;48.588;10.836;2024-03-06T01:10:44;96674.66;;;8.28;78.98
56142;BME280;42018;48.588;10.836;2024-03-06T01:13:30;96673.38;;;8.36;78.15
56142;BME280;42018;48.588;10.836;2024-03-06T01:16:16;96667.56;;;8.34;77.87
56142;BME280;42018;48.588;10.836;2024-03-06T01:19:01;96669.06;;;8.25;78.29
56142;BME280;42018;48.588;10.836;2024-03-06T01:21:47;96672.75;;;8.19;78.70
56142;BME280;42018;48.588;10.836;2024-03-06T01:24:33;96662.50;;;8.27;78.75
56142;BME280;42018;48.588;10.836;2024-03-06T01:27:19;96664.78;;;8.13;79.53
56142;BME280;42018;48.588;10.836;2024-03-06T01:30:05;96670.91;;;8.19;79.51
56142;BME280;42018;48.588;10.836;2024-03-06T01:32:50;96664.56;;;8.20;79.08
56142;BME280;42018;48.588;10.836;2024-03-06T01:35:36;96673.28;;;8.21;79.03
56142;BME280;42018;48.588;10.836;2024-03-06T01:38:21;96673.75;;;8.12;79.20
56142;BME280;42018;48.588;10.836;2024-03-06T01:41:07;96673.19;;;8.10;79.50
56142;BME280;42018;48.588;10.836;2024-03-06T01:43:53;96671.63;;;8.14;79.69
56142;BME280;42018;48.588;10.836;2024-03-06T01:46:39;96674.31;;;8.20;79.79
56142;BME280;42018;48.588;10.836;2024-03-06T01:49:25;96676.19;;;8.19;79.40
56142;BME280;42018;48.588;10.836;2024-03-06T01:52:14;96676.97;;;8.20;79.54
56142;BME280;42018;48.588;10.836;2024-03-06T01:55:00;96672.47;;;8.20;79.60
56142;BME280;42018;48.588;10.836;2024-03-06T01:57:46;96663.00;;;8.24;79.39
56142;BME280;42018;48.588;10.836;2024-03-06T02:00:32;96657.91;;;8.12;78.95
56142;BME280;42018;48.588;10.836;2024-03-06T02:03:19;96657.34;;;8.10;79.34
56142;BME280;42018;48.588;10.836;2024-03-06T02:06:05;96661.13;;;8.20;79.37
56142;BME280;42018;48.588;10.836;2024-03-06T02:08:51;96658.69;;;8.13;79.76
56142;BME280;42018;48.588;10.836;2024-03-06T02:11:37;96659.25;;;8.15;79.40
56142;BME280;42018;48.588;10.836;2024-03-06T02:14:23;96644.75;;;8.18;79.23
56142;BME280;42018;48.588;10.836;2024-03-06T02:17:08;96652.81;;;8.01;79.68
56142;BME280;42018;48.588;10.836;2024-03-06T02:19:54;96647.72;;;7.94;80.43
56142;BME280;42018;48.588;10.836;2024-03-06T02:22:43;96656.88;;;7.86;80.60
56142;BME280;42018;48.588;10.836;2024-03-06T02:25:28;96649.50;;;7.88;80.86
56142;BME280;42018;48.588;10.836;2024-03-06T02:28:14;96653.50;;;7.91;80.79
56142;BME280;42018;48.588;10.836;2024-03-06T02:30:59;96655.63;;;7.94;80.58
56142;BME280;42018;48.588;10.836;2024-03-06T02:33:48;96650.25;;;7.84;80.70
56142;BME280;42018;48.588;10.836;2024-03-06T02:36:34;96659.22;;;7.83;80.97
56142;BME280;42018;48.588;10.836;2024-03-06T02:39:21;96653.78;;;7.67;81.58
56142;BME280;42018;48.588;10.836;2024-03-06T02:42:06;96651.56;;;7.54;81.66
56142;BME280;42018;48.588;10.836;2024-03-06T02:44:52;96642.28;;;7.79;81.22
56142;BME280;42018;48.588;10.836;2024-03-06T02:47:37;96646.97;;;7.99;80.79
56142;BME280;42018;48.588;10.836;2024-03-06T02:50:23;96644.13;;;8.05;80.01
56142;BME280;42018;48.588;10.836;2024-03-06T02:53:08;96645.84;;;7.62;81.33
56142;BME280;42018;48.588;10.836;2024-03-06T02:55:54;96648.81;;;7.71;81.18
56142;BME280;42018;48.588;10.836;2024-03-06T02:58:39;96645.00;;;7.84;80.76
56142;BME280;42018;48.588;10.836;2024-03-06T03:01:25;96645.88;;;7.67;81.15
56142;BME280;42018;48.588;10.836;2024-03-06T03:04:12;96649.22;;;7.58;81.23
56142;BME280;42018;48.588;10.836;2024-03-06T03:06:58;96641.78;;;7.82;81.23
56142;BME280;42018;48.588;10.836;2024-03-06T03:09:43;96642.50;;;7.72;80.78
56142;BME280;42018;48.588;10.836;2024-03-06T03:12:29;96646.53;;;7.80;80.88
56142;BME280;42018;48.588;10.836;2024-03-06T03:15:14;96648.28;;;7.69;80.94
56142;BME280;42018;48.588;10.836;2024-03-06T03:18:00;96643.66;;;7.54;81.84
56142;BME280;42018;48.588;10.836;2024-03-06T03:20:45;96641.06;;;7.86;80.73
56142;BME280;42018;48.588;10.836;2024-03-06T03:23:32;96639.66;;;7.79;81.08
56142;BME280;42018;48.588;10.836;2024-03-06T03:26:18;96637.41;;;7.92;80.51
56142;BME280;42018;48.588;10.836;2024-03-06T03:29:03;96637.78;;;7.74;81.21
56142;BME280;42018;48.588;10.836;2024-03-06T03:31:49;96642.34;;;7.84;80.45
56142;BME280;42018;48.588;10.836;2024-03-06T03:34:35;96641.88;;;7.92;80.40
56142;BME280;42018;48.588;10.836;2024-03-06T03:37:20;96648.94;;;7.54;82.12
56142;BME280;42018;48.588;10.836;2024-03-06T03:40:06;96647.16;;;7.92;81.18
56142;BME280;42018;48.588;10.836;2024-03-06T03:42:52;96646.94;;;7.94;80.36
56142;BME280;42018;48.588;10.836;2024-03-06T03:45:37;96656.78;;;7.76;80.61
56142;BME280;42018;48.588;10.836;2024-03-06T03:48:23;96653.84;;;7.73;81.34
56142;BME280;42018;48.588;10.836;2024-03-06T03:51:09;96653.78;;;7.95;80.29
56142;BME280;42018;48.588;10.836;2024-03-06T03:53:55;96658.06;;;8.01;80.17
56142;BME280;42018;48.588;10.836;2024-03-06T03:56:40;96660.47;;;8.07;79.95
56142;BME280;42018;48.588;10.836;2024-03-06T03:59:26;96660.94;;;7.99;79.43
56142;BME280;42018;48.588;10.836;2024-03-06T04:02:11;96667.59;;;8.07;79.71
56142;BME280;42018;48.588;10.836;2024-03-06T04:04:57;96664.81;;;8.19;79.32
56142;BME280;42018;48.588;10.836;2024-03-06T04:07:42;96661.44;;;8.23;79.17
56142;BME280;42018;48.588;10.836;2024-03-06T04:10:28;96670.09;;;8.19;79.45
56142;BME280;42018;48.588;10.836;2024-03-06T04:13:15;96666.00;;;8.33;78.91
56142;BME280;42018;48.588;10.836;2024-03-06T04:16:01;96669.94;;;8.35;78.43
56142;BME280;42018;48.588;10.836;2024-03-06T04:18:47;96673.09;;;8.32;78.61
56142;BME280;42018;48.588;10.836;2024-03-06T04:21:33;96668.38;;;8.34;78.41
56142;BME280;42018;48.588;10.836;2024-03-06T04:24:18;96673.75;;;8.12;78.74
56142;BME280;42018;48.588;10.836;2024-03-06T04:27:04;96668.50;;;8.18;78.37
56142;BME280;42018;48.588;10.836;2024-03-06T04:29:50;96672.22;;;8.22;78.47
56142;BME280;42018;48.588;10.836;2024-03-06T04:32:35;96676.50;;;8.28;79.01
56142;BME280;42018;48.588;10.836;2024-03-06T04:35:21;96676.84;;;8.36;78.40
56142;BME280;42018;48.588;10.836;2024-03-06T04:38:06;96682.63;;;8.33;78.27
56142;BME280;42018;48.588;10.836;2024-03-06T04:40:52;96677.09;;;8.35;78.40
56142;BME280;42018;48.588;10.836;2024-03-06T04:43:37;96685.63;;;8.42;78.06
56142;BME280;42018;48.588;10.836;2024-03-06T04:46:23;96686.41;;;8.43;78.28
56142;BME280;42018;48.588;10.836;2024-03-06T04:49:09;96685.38;;;8.44;77.88
56142;BME280;42018;48.588;10.836;2024-03-06T04:51:54;96694.47;;;8.31;78.18
56142;BME280;42018;48.588;10.836;2024-03-06T04:54:40;96697.63;;;8.28;78.56
56142;BME280;42018;48.588;10.836;2024-03-06T04:57:28;96690.91;;;8.42;77.90
56142;BME280;42018;48.588;10.836;2024-03-06T05:00:14;96698.03;;;8.42;77.88
56142;BME280;42018;48.588;10.836;2024-03-06T05:02:59;96700.66;;;8.42;77.87
56142;BME280;42018;48.588;10.836;2024-03-06T05:05:45;96708.34;;;8.43;78.38
56142;BME280;42018;48.588;10.836;2024-03-06T05:08:30;96710.44;;;8.41;78.21
56142;BME280;42018;48.588;10.836;2024-03-06T05:11:16;96708.97;;;8.55;77.32
56142;BME280;42018;48.588;10.836;2024-03-06T05:14:02;96707.31;;;8.49;77.59
56142;BME280;42018;48.588;10.836;2024-03-06T05:16:48;96710.44;;;8.41;77.98
56142;BME280;42018;48.588;10.836;2024-03-06T05:19:34;96707.81;;;8.46;77.72
56142;BME280;42018;48.588;10.836;2024-03-06T05:22:20;96709.97;;;8.49;77.93
56142;BME280;42018;48.588;10.836;2024-03-06T05:25:06;96712.00;;;8.42;78.26
56142;BME280;42018;48.588;10.836;2024-03-06T05:27:52;96714.91;;;8.41;78.26
56142;BME280;42018;48.588;10.836;2024-03-06T05:30:37;96718.19;;;8.53;77.46
56142;BME280;42018;48.588;10.836;2024-03-06T05:33:23;96716.28;;;8.48;77.91
56142;BME280;42018;48.588;10.836;2024-03-06T05:36:08;96720.22;;;8.46;78.10
56142;BME280;42018;48.588;10.836;2024-03-06T05:38:54;96716.84;;;8.50;77.97
56142;BME280;42018;48.588;10.836;2024-03-06T05:41:40;96716.03;;;8.50;77.77
56142;BME280;42018;48.588;10.836;2024-03-06T05:44:29;96715.09;;;8.34;78.45
56142;BME280;42018;48.588;10.836;2024-03-06T05:47:15;96711.97;;;8.37;78.27
56142;BME280;42018;48.588;10.836;2024-03-06T05:50:01;96722.16;;;8.28;78.93
56142;BME280;42018;48.588;10.836;2024-03-06T05:52:49;96728.22;;;8.29;79.12
56142;BME280;42018;48.588;10.836;2024-03-06T05:55:35;96728.19;;;8.24;79.16
56142;BME280;42018;48.588;10.836;2024-03-06T05:58:21;96727.13;;;8.25;78.83
56142;BME280;42018;48.588;10.836;2024-03-06T06:01:06;96726.66;;;8.28;78.74
56142;BME280;42018;48.588;10.836;2024-03-06T06:03:52;96728.66;;;8.15;79.66
56142;BME280;42018;48.588;10.836;2024-03-06T06:06:37;96730.56;;;8.25;79.54
56142;BME280;42018;48.588;10.836;2024-03-06T06:09:24;96731.41;;;8.26;79.00
56142;BME280;42018;48.588;10.836;2024-03-06T06:12:09;96734.22;;;8.19;78.95
56142;BME280;42018;48.588;10.836;2024-03-06T06:14:55;96739.59;;;8.02;79.97
56142;BME280;42018;48.588;10.836;2024-03-06T06:17:40;96740.59;;;8.23;79.08
56142;BME280;42018;48.588;10.836;2024-03-06T06:20:28;96748.31;;;8.30;79.23
56142;BME280;42018;48.588;10.836;2024-03-06T06:23:14;96755.88;;;8.43;79.02
56142;BME280;42018;48.588;10.836;2024-03-06T06:25:59;96757.19;;;8.19;79.95
56142;BME280;42018;48.588;10.836;2024-03-06T06:28:45;96751.50;;;8.32;79.58
56142;BME280;42018;48.588;10.836;2024-03-06T06:31:32;96756.38;;;8.40;79.09
56142;BME280;42018;48.588;10.836;2024-03-06T06:34:17;96759.59;;;8.25;79.78
56142;BME280;42018;48.588;10.836;2024-03-06T06:37:03;96769.69;;;8.01;81.19
56142;BME280;42018;48.588;10.836;2024-03-06T06:39:49;96760.16;;;8.27;79.91
56142;BME280;42018;48.588;10.836;2024-03-06T06:42:35;96768.09;;;8.27;80.28
56142;BME280;42018;48.588;10.836;2024-03-06T06:45:21;96762.25;;;8.25;80.08
56142;BME280;42018;48.588;10.836;2024-03-06T06:48:07;96766.31;;;8.33;80.01
56142;BME280;42018;48.588;10.836;2024-03-06T06:50:54;96772.59;;;8.32;80.29
56142;BME280;42018;48.588;10.836;2024-03-06T06:53:39;96772.50;;;8.44;79.72
56142;BME280;42018;48.588;10.836;2024-03-06T06:56:27;96776.34;;;8.36;79.88
56142;BME280;42018;48.588;10.836;2024-03-06T06:59:12;96770.09;;;8.42;80.46
56142;BME280;42018;48.588;10.836;2024-03-06T07:01:58;96776.13;;;8.37;80.37
56142;BME280;42018;48.588;10.836;2024-03-06T07:04:44;96779.63;;;8.43;80.49
56142;BME280;42018;48.588;10.836;2024-03-06T07:07:29;96779.56;;;8.38;80.19
56142;BME280;42018;48.588;10.836;2024-03-06T07:10:15;96782.31;;;8.48;79.85
56142;BME280;42018;48.588;10.836;2024-03-06T07:13:01;96776.84;;;8.60;79.68
56142;BME280;42018;48.588;10.836;2024-03-06T07:15:48;96794.31;;;8.61;79.90
56142;BME280;42018;48.588;10.836;2024-03-06T07:18:33;96789.91;;;8.72;79.25
56142;BME280;42018;48.588;10.836;2024-03-06T07:21:19;96788.50;;;8.64;79.56
56142;BME280;42018;48.588;10.836;2024-03-06T07:24:05;96782.72;;;8.67;79.33
56142;BME280;42018;48.588;10.836;2024-03-06T07:26:50;96782.03;;;8.50;80.36
56142;BME280;42018;48.588;10.836;2024-03-06T07:29:36;96785.16;;;8.42;80.97
56142;BME280;42018;48.588;10.836;2024-03-06T07:32:22;96789.00;;;8.34;81.58
56142;BME280;42018;48.588;10.836;2024-03-06T07:35:07;96798.06;;;8.16;82.76
56142;BME280;42018;48.588;10.836;2024-03-06T07:37:53;96795.06;;;8.34;82.30
56142;BME280;42018;48.588;10.836;2024-03-06T07:40:38;96798.63;;;8.40;81.55
56142;BME280;42018;48.588;10.836;2024-03-06T07:43:24;96797.47;;;8.36;82.24
56142;BME280;42018;48.588;10.836;2024-03-06T07:46:09;96806.81;;;8.44;82.08
56142;BME280;42018;48.588;10.836;2024-03-06T07:48:58;96813.22;;;8.26;82.89
56142;BME280;42018;48.588;10.836;2024-03-06T07:51:44;96810.75;;;8.41;82.56
56142;BME280;42018;48.588;10.836;2024-03-06T07:54:29;96812.34;;;8.42;82.50
56142;BME280;42018;48.588;10.836;2024-03-06T07:57:15;96818.69;;;8.41;82.88
56142;BME280;42018;48.588;10.836;2024-03-06T08:00:01;96819.16;;;8.65;81.87
56142;BME280;42018;48.588;10.836;2024-03-06T08:02:47;96815.22;;;8.68;81.66
56142;BME280;42018;48.588;10.836;2024-03-06T08:05:35;96826.97;;;8.82;80.58
56142;BME280;42018;48.588;10.836;2024-03-06T08:08:21;96832.34;;;8.92;80.85
56142;BME280;42018;48.588;10.836;2024-03-06T08:11:07;96832.63;;;8.96;80.34
56142;BME280;42018;48.588;10.836;2024-03-06T08:13:59;96830.84;;;9.06;80.26
56142;BME280;42018;48.588;10.836;2024-03-06T08:16:45;96838.88;;;9.17;79.29
56142;BME280;42018;48.588;10.836;2024-03-06T08:19:30;96835.16;;;9.18;79.22
56142;BME280;42018;48.588;10.836;2024-03-06T08:22:16;96843.06;;;9.13;78.98
56142;BME280;42018;48.588;10.836;2024-03-06T08:25:02;96843.66;;;9.20;79.30
56142;BME280;42018;48.588;10.836;2024-03-06T08:27:47;96849.22;;;9.23;79.39
56142;BME280;42018;48.588;10.836;2024-03-06T08:30:33;96846.59;;;9.28;78.84
56142;BME280;42018;48.588;10.836;2024-03-06T08:33:18;96844.53;;;9.35;78.91
56142;BME280;42018;48.588;10.836;2024-03-06T08:36:06;96849.09;;;9.45;78.16
56142;BME280;42018;48.588;10.836;2024-03-06T08:38:52;96847.00;;;9.47;78.04
56142;BME280;42018;48.588;10.836;2024-03-06T08:41:37;96858.13;;;9.49;78.05
56142;BME280;42018;48.588;10.836;2024-03-06T08:44:23;96848.53;;;9.38;78.59
56142;BME280;42018;48.588;10.836;2024-03-06T08:47:08;96853.28;;;9.36;79.06
56142;BME280;42018;48.588;10.836;2024-03-06T08:49:54;96862.31;;;9.40;78.93
56142;BME280;42018;48.588;10.836;2024-03-06T08:52:40;96854.09;;;9.42;79.37
56142;BME280;42018;48.588;10.836;2024-03-06T08:55:26;96851.25;;;9.48;79.51
56142;BME280;42018;48.588;10.836;2024-03-06T08:58:13;96854.47;;;9.55;79.74
56142;BME280;42018;48.588;10.836;2024-03-06T09:00:59;96851.81;;;9.55;80.22
56142;BME280;42018;48.588;10.836;2024-03-06T09:03:45;96857.72;;;9.68;79.92
56142;BME280;42018;48.588;10.836;2024-03-06T09:06:30;96864.34;;;9.70;80.20
56142;BME280;42018;48.588;10.836;2024-03-06T09:09:16;96867.25;;;9.74;80.74
56142;BME280;42018;48.588;10.836;2024-03-06T09:12:01;96869.41;;;9.77;80.50
56142;BME280;42018;48.588;10.836;2024-03-06T09:14:49;96874.25;;;9.90;79.78
56142;BME280;42018;48.588;10.836;2024-03-06T09:17:34;96876.38;;;9.93;79.50
56142;BME280;42018;48.588;10.836;2024-03-06T09:20:20;96873.66;;;9.83;79.66
56142;BME280;42018;48.588;10.836;2024-03-06T09:23:05;96877.38;;;9.82;79.23
56142;BME280;42018;48.588;10.836;2024-03-06T09:25:51;96881.06;;;9.81;78.99
56142;BME280;42018;48.588;10.836;2024-03-06T09:28:38;96886.84;;;9.73;79.26
56142;BME280;42018;48.588;10.836;2024-03-06T09:31:23;96886.00;;;9.67;79.59
56142;BME280;42018;48.588;10.836;2024-03-06T09:34:11;96881.97;;;9.54;79.81
56142;BME280;42018;48.588;10.836;2024-03-06T09:36:59;96892.19;;;9.41;81.02
56142;BME280;42018;48.588;10.836;2024-03-06T09:39:45;96888.66;;;9.67;80.06
56142;BME280;42018;48.588;10.836;2024-03-06T09:42:33;96897.97;;;9.75;79.58
56142;BME280;42018;48.588;10.836;2024-03-06T09:45:19;96896.97;;;9.86;79.73
56142;BME280;42018;48.588;10.836;2024-03-06T09:48:08;96901.16;;;9.77;80.11
56142;BME280;42018;48.588;10.836;2024-03-06T09:50:57;96896.94;;;9.81;79.50
56142;BME280;42018;48.588;10.836;2024-03-06T09:53:45;96896.13;;;9.75;80.12
56142;BME280;42018;48.588;10.836;2024-03-06T09:56:34;96899.13;;;9.89;79.57
56142;BME280;42018;48.588;10.836;2024-03-06T09:59:19;96900.16;;;9.88;79.75
56142;BME280;42018;48.588;10.836;2024-03-06T10:02:15;96889.84;;;9.87;79.66
56142;BME280;42018;48.588;10.836;2024-03-06T10:05:04;96903.94;;;10.02;79.00
56142;BME280;42018;48.588;10.836;2024-03-06T10:07:51;96906.84;;;9.58;79.91
56142;BME280;42018;48.588;10.836;2024-03-06T10:10:37;96902.13;;;9.61;80.36
56142;BME280;42018;48.588;10.836;2024-03-06T10:13:24;96906.31;;;9.56;80.48
56142;BME280;42018;48.588;10.836;2024-03-06T10:16:10;96914.09;;;9.73;79.02
56142;BME280;42018;48.588;10.836;2024-03-06T10:18:56;96904.69;;;9.93;78.42
56142;BME280;42018;48.588;10.836;2024-03-06T10:21:42;96905.38;;;9.73;79.14
56142;BME280;42018;48.588;10.836;2024-03-06T10:24:29;96906.00;;;9.90;78.91
56142;BME280;42018;48.588;10.836;2024-03-06T10:27:16;96909.97;;;9.50;80.11
56142;BME280;42018;48.588;10.836;2024-03-06T10:30:05;96909.94;;;9.45;81.05
56142;BME280;42018;48.588;10.836;2024-03-06T10:32:56;96916.53;;;9.80;79.29
56142;BME280;42018;48.588;10.836;2024-03-06T10:35:43;96914.47;;;9.92;78.75
56142;BME280;42018;48.588;10.836;2024-03-06T10:38:34;96915.59;;;10.06;78.60
56142;BME280;42018;48.588;10.836;2024-03-06T10:41:23;96920.41;;;9.67;79.29
56142;BME280;42018;48.588;10.836;2024-03-06T10:44:12;96914.75;;;9.96;79.16
56142;BME280;42018;48.588;10.836;2024-03-06T10:47:02;96918.09;;;9.81;78.77
56142;BME280;42018;48.588;10.836;2024-03-06T10:49:49;96920.81;;;9.17;80.77
56142;BME280;42018;48.588;10.836;2024-03-06T10:52:36;96920.72;;;9.39;81.32
56142;BME280;42018;48.588;10.836;2024-03-06T10:55:24;96930.41;;;9.28;81.41
56142;BME280;42018;48.588;10.836;2024-03-06T10:58:11;96927.44;;;9.51;81.20
56142;BME280;42018;48.588;10.836;2024-03-06T11:00:57;96929.97;;;9.73;79.48
56142;BME280;42018;48.588;10.836;2024-03-06T11:03:43;96926.91;;;9.92;78.87
56142;BME280;42018;48.588;10.836;2024-03-06T11:06:29;96918.06;;;10.23;78.28
56142;BME280;42018;48.588;10.836;2024-03-06T11:09:14;96921.84;;;10.38;77.39
56142;BME280;42018;48.588;10.836;2024-03-06T11:12:01;96925.25;;;10.28;77.89
56142;BME280;42018;48.588;10.836;2024-03-06T11:14:50;96932.72;;;10.41;77.09
56142;BME280;42018;48.588;10.836;2024-03-06T11:17:36;96920.50;;;10.30;76.83
56142;BME280;42018;48.588;10.836;2024-03-06T11:20:22;96925.22;;;9.75;78.82
56142;BME280;42018;48.588;10.836;2024-03-06T11:23:10;96926.06;;;10.28;77.28
56142;BME280;42018;48.588;10.836;2024-03-06T11:26:06;96927.94;;;9.48;79.04
56142;BME280;42018;48.588;10.836;2024-03-06T11:28:51;96930.66;;;9.58;79.30
56142;BME280;42018;48.588;10.836;2024-03-06T11:31:37;96927.34;;;8.82;81.13
56142;BME280;42018;48.588;10.836;2024-03-06T11:34:22;96927.47;;;9.24;81.51
56142;BME280;42018;48.588;10.836;2024-03-06T11:37:08;96927.13;;;9.43;80.42
56142;BME280;42018;48.588;10.836;2024-03-06T11:40:00;96924.75;;;9.89;77.74
56142;BME280;42018;48.588;10.836;2024-03-06T11:42:46;96917.69;;;9.99;78.01
56142;BME280;42018;48.588;10.836;2024-03-06T11:45:44;96922.16;;;9.94;78.18
56142;BME280;42018;48.588;10.836;2024-03-06T11:48:29;96930.56;;;9.43;80.29
56142;BME280;42018;48.588;10.836;2024-03-06T11:51:16;96927.25;;;9.63;79.28
56142;BME280;42018;48.588;10.836;2024-03-06T11:54:05;96930.00;;;9.41;79.83
56142;BME280;42018;48.588;10.836;2024-03-06T11:56:51;96929.25;;;9.88;78.74
56142;BME280;42018;48.588;10.836;2024-03-06T11:59:39;96921.44;;;10.08;77.68
56142;BME280;42018;48.588;10.836;2024-03-06T12:02:25;96927.69;;;9.92;78.24
56142;BME280;42018;48.588;10.836;2024-03-06T12:05:12;96924.53;;;9.95;77.86
56142;BME280;42018;48.588;10.836;2024-03-06T12:07:58;96926.59;;;10.30;77.00
56142;BME280;42018;48.588;10.836;2024-03-06T12:10:45;96920.09;;;10.53;76.27
56142;BME280;42018;48.588;10.836;2024-03-06T12:13:31;96925.94;;;10.61;76.10
56142;BME280;42018;48.588;10.836;2024-03-06T12:16:17;96916.69;;;10.68;76.32
56142;BME280;42018;48.588;10.836;2024-03-06T12:19:03;96923.31;;;10.71;76.55
56142;BME280;42018;48.588;10.836;2024-03-06T12:21:50;96923.03;;;10.77;76.93
56142;BME280;42018;48.588;10.836;2024-03-06T12:24:36;96924.41;;;10.90;75.99
56142;BME280;42018;48.588;10.836;2024-03-06T12:27:22;96921.75;;;10.95;74.81
56142;BME280;42018;48.588;10.836;2024-03-06T12:30:09;96915.94;;;10.93;74.28
56142;BME280;42018;48.588;10.836;2024-03-06T12:32:58;96917.53;;;10.99;74.74
56142;BME280;42018;48.588;10.836;2024-03-06T12:35:44;96914.09;;;11.04;74.39
56142;BME280;42018;48.588;10.836;2024-03-06T12:38:33;96914.34;;;11.02;74.24
56142;BME280;42018;48.588;10.836;2024-03-06T12:41:20;96911.16;;;11.06;74.31
56142;BME280;42018;48.588;10.836;2024-03-06T12:44:06;96915.13;;;11.13;74.19
56142;BME280;42018;48.588;10.836;2024-03-06T12:46:54;96923.38;;;11.17;74.42
56142;BME280;42018;48.588;10.836;2024-03-06T12:49:40;96913.56;;;11.22;74.06
56142;BME280;42018;48.588;10.836;2024-03-06T12:52:25;96915.44;;;11.22;74.00
56142;BME280;42018;48.588;10.836;2024-03-06T12:55:11;96915.94;;;11.19;73.84
56142;BME280;42018;48.588;10.836;2024-03-06T12:57:57;96917.00;;;11.13;73.59
56142;BME280;42018;48.588;10.836;2024-03-06T13:00:43;96917.03;;;11.18;73.53
56142;BME280;42018;48.588;10.836;2024-03-06T13:03:29;96922.31;;;11.23;72.44
56142;BME280;42018;48.588;10.836;2024-03-06T13:06:14;96919.16;;;11.21;72.34
56142;BME280;42018;48.588;10.836;2024-03-06T13:09:00;96916.22;;;11.22;72.17
56142;BME280;42018;48.588;10.836;2024-03-06T13:11:45;96920.22;;;11.25;72.46
56142;BME280;42018;48.588;10.836;2024-03-06T13:14:31;96923.38;;;11.27;72.45
56142;BME280;42018;48.588;10.836;2024-03-06T13:17:17;96914.63;;;11.26;72.89
56142;BME280;42018;48.588;10.836;2024-03-06T13:20:04;96915.69;;;11.25;73.05
56142;BME280;42018;48.588;10.836;2024-03-06T13:22:49;96920.47;;;11.29;72.94
56142;BME280;42018;48.588;10.836;2024-03-06T13:25:35;96917.53;;;11.30;72.92
56142;BME280;42018;48.588;10.836;2024-03-06T13:28:20;96913.56;;;11.33;71.71
56142;BME280;42018;48.588;10.836;2024-03-06T13:31:06;96916.22;;;11.48;71.29
56142;BME280;42018;48.588;10.836;2024-03-06T13:33:52;96915.16;;;11.54;71.24
56142;BME280;42018;48.588;10.836;2024-03-06T13:36:38;96910.66;;;11.55;71.17
56142;BME280;42018;48.588;10.836;2024-03-06T13:39:24;96910.13;;;11.58;71.10
56142;BME280;42018;48.588;10.836;2024-03-06T13:42:10;96904.00;;;11.62;71.39
56142;BME280;42018;48.588;10.836;2024-03-06T13:44:55;96906.38;;;11.69;71.43
56142;BME280;42018;48.588;10.836;2024-03-06T13:47:42;96907.97;;;11.75;71.70
56142;BME280;42018;48.588;10.836;2024-03-06T13:50:28;96905.81;;;11.77;70.77
56142;BME280;42018;48.588;10.836;2024-03-06T13:53:14;96913.25;;;11.80;70.85
56142;BME280;42018;48.588;10.836;2024-03-06T13:56:00;96913.00;;;11.87;70.14
56142;BME280;42018;48.588;10.836;2024-03-06T13:58:46;96913.03;;;11.71;68.56
56142;BME280;42018;48.588;10.836;2024-03-06T14:01:32;96919.94;;;11.67;69.13
56142;BME280;42018;48.588;10.836;2024-03-06T14:04:17;96918.84;;;11.73;68.82
56142;BME280;42018;48.588;10.836;2024-03-06T14:07:03;96923.38;;;11.68;69.17
56142;BME280;42018;48.588;10.836;2024-03-06T14:09:50;96928.44;;;11.54;69.28
56142;BME280;42018;48.588;10.836;2024-03-06T14:12:38;96926.06;;;11.53;70.09
56142;BME280;42018;48.588;10.836;2024-03-06T14:15:24;96928.69;;;11.42;70.29
56142;BME280;42018;48.588;10.836;2024-03-06T14:18:11;96922.84;;;11.40;71.52
56142;BME280;42018;48.588;10.836;2024-03-06T14:20:57;96926.06;;;11.42;72.00
56142;BME280;42018;48.588;10.836;2024-03-06T14:23:42;96923.91;;;11.44;72.17
56142;BME280;42018;48.588;10.836;2024-03-06T14:26:38;96925.50;;;11.25;73.08
56142;BME280;42018;48.588;10.836;2024-03-06T14:29:23;96924.72;;;11.30;73.32
56142;BME280;42018;48.588;10.836;2024-03-06T14:32:11;96926.03;;;11.32;72.65
56142;BME280;42018;48.588;10.836;2024-03-06T14:34:56;96924.97;;;11.23;72.52
56142;BME280;42018;48.588;10.836;2024-03-06T14:37:42;96930.03;;;11.24;73.37